• Join FlightAware (Why Join?)
  • Login
  • US Flag 
02:14AM EDT


 

Airport Tracker/Info


-or-


 

Live Flight TrackerFlight Track Log ✈ UAL3826 ✈ 03-Oct-2013 ✈ KMHT - KEWR

Flight Track Log - Related Links

Times and Time Zones

All times are in EDT time to prevent confusion due to time zone crossing. See the UAL3826 flight status page for this flight to view local times or setup timezone preferences in your user account.

Time Position Orientation Groundspeed Altitude Reporting Facility
EDT Latitude Longitude Course Direction KTS MPH feet Rate Location/Type
05:50AM 42.9500 -71.4167 281° West 158 182 900  Level KA90
05:51AM 42.9833 -71.4000 20° North 186 214 2,300 2,040 Climbing KA90
05:52AM 43.0122 -71.3781 29° Northeast 203 234 3,600 2,520 Climbing Boston Center
05:53AM 42.7720 -71.6412 280° West  Level Estimated
05:53AM 43.0503 -71.4258 317° Northwest 203 234 6,300  Level Boston Center
05:54AM 42.7183 -71.7095 276° West  Level Estimated
05:54AM 43.0842 -71.4933 305° West 208 239 8,500  Level Boston Center
05:55AM 42.7653 -71.7863 310° West  Level FlightAware Approximate
05:55AM 43.1181 -71.5583 306° West 237 273 10,100  Level Boston Center
05:56AM 42.7102 -71.8524 281° West  Level Estimated
05:56AM 43.1481 -71.6517 294° West 260 299 10,700  Level Boston Center
05:57AM 43.1508 -71.7769 272° West 312 359 11,700 1,140 Climbing Boston Center
05:58AM 43.1556 -71.9022 273° West 335 386 13,100 1,440 Climbing Boston Center
05:59AM 43.1583 -72.0303 272° West 335 386 14,600 1,260 Climbing Boston Center
06:00AM 43.1483 -72.1583 264° West 335 386 15,700 1,140 Climbing Boston Center
06:01AM 43.1214 -72.2808 253° West 341 392 16,900 1,080 Climbing Boston Center
06:02AM 43.0922 -72.4031 252° West 341 392 17,900 1,020 Climbing Boston Center
06:03AM 43.0611 -72.5311 252° West 346 398 19,000 1,080 Climbing Boston Center
06:04AM 43.0317 -72.6389 250° West 340 391 20,100 1,080 Climbing Boston Center
06:05AM 43.0022 -72.7667 253° West 351 404 21,200 900 Climbing Boston Center
06:06AM 42.9725 -72.8969 253° West 357 411 22,000 360 Climbing Boston Center
06:07AM 42.9386 -73.0497 253° West 376 433 22,000 -120 Level Boston Center
06:08AM 42.9044 -73.1911 252° West 391 450 21,800 -660 Descending Boston Center
06:09AM 42.8658 -73.3322 250° West 391 450 20,800 -1,200 Descending Boston Center
06:10AM 42.8314 -73.4733 252° West 396 456 19,400 -1,740 Descending Boston Center
06:11AM 42.7967 -73.6058 250° West 382 440 17,400 -1,680 Descending Boston Center
06:12AM 42.7661 -73.7353 252° West 376 433 16,100 -720 Descending Boston Center
06:13AM 42.7067 -73.8303 230° Southwest 347 399 16,000 -60 Descending Boston Center
06:14AM 42.6103 -73.8703 197° South 334 384 16,000  Level Boston Center
06:15AM 42.5117 -73.9075 196° South 346 398 16,000  Level Boston Center
06:16AM 42.4258 -73.9478 199° South 365 420 16,000 -60 Level Boston Center
06:17AM 42.3211 -73.9931 198° South 365 420 15,900 -60 Descending Boston Center
06:18AM 42.2392 -74.0300 198° South 365 420 15,900  Level Boston Center
06:19AM 42.1447 -74.0753 200° South 365 420 16,000 -420 Climbing Boston Center
06:20AM 42.0525 -74.1150 198° South 360 414 15,100 -1,140 Descending Boston Center
06:21AM 41.9517 -74.1597 198° South 360 414 13,800 -1,500 Descending Boston Center
06:22AM 41.8719 -74.1936 198° South 345 397 12,100 -1,740 Descending Boston Center
06:23AM 41.7775 -74.2328 197° South 332 382 10,400 -1,500 Descending Boston Center
06:24AM 41.7064 -74.2642 198° South 307 353 9,200 -1,500 Descending Boston Center
06:25AM 41.6264 -74.2981 198° South 293 337 7,500 -1,140 Descending Boston Center
06:26AM 41.5614 -74.3267 198° South 282 325 7,000 -300 Descending Boston Center
06:27AM 41.4836 -74.3603 198° South 282 325 7,000  Level Boston Center
06:29AM 41.3167 -74.4333 198° South 272 313 7,100  Climbing New York TRACON
06:30AM 41.2500 -74.4667 201° Southwest 273 314 7,100  Level New York TRACON
06:31AM 41.1833 -74.4833 191° South 272 313 7,100  Level New York TRACON
06:32AM 41.1167 -74.5167 201° Southwest 275 316 7,100 -360 Level New York TRACON
06:33AM 41.0333 -74.5333 189° South 274 315 6,500 -540 Descending New York TRACON
06:34AM 40.9667 -74.5333 180° South 271 312 6,100 -240 Descending New York TRACON
06:35AM 40.8833 -74.5500 189° South 274 315 6,100  Level New York TRACON
06:36AM 40.8167 -74.5333 169° South 276 318 6,100 -60 Level New York TRACON
06:37AM 40.7333 -74.5167 171° South 275 316 6,000 -540 Descending New York TRACON
06:38AM 40.6667 -74.5167 180° South 274 315 5,100 -840 Descending New York TRACON
06:39AM 40.5833 -74.5000 171° South 270 311 4,400 -540 Descending New York TRACON
06:40AM 40.5500 -74.4333 123° Southeast 236 272 4,100 -240 Descending New York TRACON
06:41AM 40.5000 -74.3667 135° Southeast 216 249 4,000 -540 Descending New York TRACON
06:42AM 40.4833 -74.3167 114° Southeast 215 247 3,100 -480 Descending New York TRACON
06:43AM 40.5333 -74.2667 37° Northeast 187 215 3,100 -360 Level New York TRACON
06:44AM 40.5667 -74.2333 37° Northeast 189 217 2,400 -840 Descending New York TRACON
06:45AM 40.6167 -74.2167 14° North 159 183 1,500 -840 Descending New York TRACON
06:46AM 40.6500 -74.2000 21° North 132 152 800 -720 Descending New York TRACON